sensor_id;sensor_type;location;lat;lon;timestamp;pressure;altitude;pressure_sealevel;temperature;humidity
10366;BME280;5229;41.820;23.490;2023-02-14T00:01:35;91019.84;;;1.65;47.87
10366;BME280;5229;41.820;23.490;2023-02-14T00:04:02;91020.28;;;1.62;48.14
10366;BME280;5229;41.820;23.490;2023-02-14T00:06:33;91015.50;;;1.54;48.11
10366;BME280;5229;41.820;23.490;2023-02-14T00:09:03;91015.31;;;1.44;48.20
10366;BME280;5229;41.820;23.490;2023-02-14T00:11:32;91013.97;;;1.41;48.64
10366;BME280;5229;41.820;23.490;2023-02-14T00:13:59;91008.09;;;1.41;48.32
10366;BME280;5229;41.820;23.490;2023-02-14T00:16:43;91004.53;;;1.42;48.44
10366;BME280;5229;41.820;23.490;2023-02-14T00:19:11;91005.09;;;1.44;48.42
10366;BME280;5229;41.820;23.490;2023-02-14T00:21:39;91006.44;;;1.46;48.03
10366;BME280;5229;41.820;23.490;2023-02-14T00:24:08;90996.97;;;1.47;48.20
10366;BME280;5229;41.820;23.490;2023-02-14T00:26:37;91005.75;;;1.51;47.99
10366;BME280;5229;41.820;23.490;2023-02-14T00:29:04;91003.31;;;1.56;47.79
10366;BME280;5229;41.820;23.490;2023-02-14T00:31:31;90999.28;;;1.60;47.20
10366;BME280;5229;41.820;23.490;2023-02-14T00:33:58;90997.59;;;1.65;47.34
10366;BME280;5229;41.820;23.490;2023-02-14T00:36:25;90999.72;;;1.68;47.13
10366;BME280;5229;41.820;23.490;2023-02-14T00:38:52;90994.16;;;1.71;46.97
10366;BME280;5229;41.820;23.490;2023-02-14T00:41:19;90994.94;;;1.72;47.14
10366;BME280;5229;41.820;23.490;2023-02-14T00:43:48;90999.56;;;1.75;47.17
10366;BME280;5229;41.820;23.490;2023-02-14T00:46:16;90998.59;;;1.76;47.43
10366;BME280;5229;41.820;23.490;2023-02-14T00:48:43;90993.47;;;1.76;47.48
10366;BME280;5229;41.820;23.490;2023-02-14T00:51:10;91001.91;;;1.76;47.67
10366;BME280;5229;41.820;23.490;2023-02-14T00:53:37;90989.69;;;1.78;47.85
10366;BME280;5229;41.820;23.490;2023-02-14T00:56:04;90980.78;;;1.81;47.41
10366;BME280;5229;41.820;23.490;2023-02-14T00:58:31;90983.34;;;1.81;47.67
10366;BME280;5229;41.820;23.490;2023-02-14T01:01:00;90984.56;;;1.78;47.67
10366;BME280;5229;41.820;23.490;2023-02-14T01:03:27;90971.38;;;1.70;47.77
10366;BME280;5229;41.820;23.490;2023-02-14T01:05:53;90966.84;;;1.60;47.58
10366;BME280;5229;41.820;23.490;2023-02-14T01:08:20;90970.00;;;1.51;47.91
10366;BME280;5229;41.820;23.490;2023-02-14T01:10:47;90974.34;;;1.39;48.17
10366;BME280;5229;41.820;23.490;2023-02-14T01:13:14;90970.59;;;1.30;48.40
10366;BME280;5229;41.820;23.490;2023-02-14T01:15:43;90970.03;;;1.28;48.26
10366;BME280;5229;41.820;23.490;2023-02-14T01:18:12;90960.38;;;1.30;48.33
10366;BME280;5229;41.820;23.490;2023-02-14T01:20:40;90954.81;;;1.33;48.11
10366;BME280;5229;41.820;23.490;2023-02-14T01:23:07;90954.13;;;1.37;48.07
10366;BME280;5229;41.820;23.490;2023-02-14T01:25:36;90957.78;;;1.41;48.13
10366;BME280;5229;41.820;23.490;2023-02-14T01:28:03;90953.31;;;1.48;47.63
10366;BME280;5229;41.820;23.490;2023-02-14T01:30:30;90951.53;;;1.49;47.83
10366;BME280;5229;41.820;23.490;2023-02-14T01:32:57;90948.84;;;1.55;47.88
10366;BME280;5229;41.820;23.490;2023-02-14T01:35:25;90949.72;;;1.61;47.41
10366;BME280;5229;41.820;23.490;2023-02-14T01:38:04;90951.06;;;1.63;47.36
10366;BME280;5229;41.820;23.490;2023-02-14T01:40:30;90947.06;;;1.67;47.68
10366;BME280;5229;41.820;23.490;2023-02-14T01:42:57;90949.91;;;1.71;47.71
10366;BME280;5229;41.820;23.490;2023-02-14T01:45:25;90950.94;;;1.70;47.33
10366;BME280;5229;41.820;23.490;2023-02-14T01:47:54;90950.16;;;1.69;47.22
10366;BME280;5229;41.820;23.490;2023-02-14T01:50:27;90949.38;;;1.69;47.04
10366;BME280;5229;41.820;23.490;2023-02-14T01:52:58;90956.03;;;1.70;47.65
10366;BME280;5229;41.820;23.490;2023-02-14T01:55:29;90955.25;;;1.69;47.06
10366;BME280;5229;41.820;23.490;2023-02-14T01:58:00;90955.47;;;1.68;47.39
10366;BME280;5229;41.820;23.490;2023-02-14T02:00:28;90958.50;;;1.65;47.42
10366;BME280;5229;41.820;23.490;2023-02-14T02:03:13;90956.63;;;1.60;47.57
10366;BME280;5229;41.820;23.490;2023-02-14T02:05:46;90951.53;;;1.60;47.23
10366;BME280;5229;41.820;23.490;2023-02-14T02:08:14;90943.28;;;1.58;47.53
10366;BME280;5229;41.820;23.490;2023-02-14T02:10:41;90941.97;;;1.56;47.47
10366;BME280;5229;41.820;23.490;2023-02-14T02:13:14;90934.31;;;1.56;47.90
10366;BME280;5229;41.820;23.490;2023-02-14T02:15:49;90922.09;;;1.58;47.52
10366;BME280;5229;41.820;23.490;2023-02-14T02:18:22;90926.72;;;1.61;47.59
10366;BME280;5229;41.820;23.490;2023-02-14T02:23:59;90934.66;;;1.59;47.46
10366;BME280;5229;41.820;23.490;2023-02-14T02:33:18;90922.97;;;1.24;47.80
10366;BME280;5229;41.820;23.490;2023-02-14T02:39:17;90926.41;;;1.18;48.07
10366;BME280;5229;41.820;23.490;2023-02-14T02:41:53;90927.97;;;1.19;48.02
10366;BME280;5229;41.820;23.490;2023-02-14T02:44:28;90928.19;;;1.17;48.22
10366;BME280;5229;41.820;23.490;2023-02-14T02:47:01;90917.66;;;1.14;47.89
10366;BME280;5229;41.820;23.490;2023-02-14T02:49:40;90912.97;;;1.11;48.17
10366;BME280;5229;41.820;23.490;2023-02-14T02:52:36;90906.78;;;1.07;47.80
10366;BME280;5229;41.820;23.490;2023-02-14T02:55:29;90887.38;;;1.06;47.85
10366;BME280;5229;41.820;23.490;2023-02-14T02:58:21;90877.69;;;1.08;48.08
10366;BME280;5229;41.820;23.490;2023-02-14T03:00:49;90875.03;;;1.14;47.93
10366;BME280;5229;41.820;23.490;2023-02-14T03:03:17;90867.00;;;1.22;47.85
10366;BME280;5229;41.820;23.490;2023-02-14T03:06:02;90857.88;;;1.26;47.75
10366;BME280;5229;41.820;23.490;2023-02-14T03:08:30;90855.66;;;1.30;47.98
10366;BME280;5229;41.820;23.490;2023-02-14T03:10:58;90861.31;;;1.32;47.71
10366;BME280;5229;41.820;23.490;2023-02-14T03:16:34;90870.88;;;1.25;48.01
10366;BME280;5229;41.820;23.490;2023-02-14T03:22:31;90884.44;;;1.25;47.86
10366;BME280;5229;41.820;23.490;2023-02-14T03:25:05;90897.06;;;1.32;47.93
10366;BME280;5229;41.820;23.490;2023-02-14T03:27:40;90912.50;;;1.37;47.95
10366;BME280;5229;41.820;23.490;2023-02-14T03:30:17;90919.59;;;1.35;47.72
10366;BME280;5229;41.820;23.490;2023-02-14T03:32:54;90925.59;;;1.29;48.38
10366;BME280;5229;41.820;23.490;2023-02-14T03:35:29;90933.41;;;1.22;48.23
10366;BME280;5229;41.820;23.490;2023-02-14T03:38:04;90926.19;;;1.19;48.14
10366;BME280;5229;41.820;23.490;2023-02-14T03:40:37;90921.63;;;1.21;48.63
10366;BME280;5229;41.820;23.490;2023-02-14T03:43:07;90912.53;;;1.25;48.59
10366;BME280;5229;41.820;23.490;2023-02-14T03:45:41;90903.41;;;1.29;48.79
10366;BME280;5229;41.820;23.490;2023-02-14T03:48:12;90897.84;;;1.32;48.84
10366;BME280;5229;41.820;23.490;2023-02-14T03:50:41;90891.84;;;1.38;48.81
10366;BME280;5229;41.820;23.490;2023-02-14T03:53:11;90885.03;;;1.44;48.95
10366;BME280;5229;41.820;23.490;2023-02-14T03:55:45;90891.09;;;1.54;48.97
10366;BME280;5229;41.820;23.490;2023-02-14T03:58:18;90907.84;;;1.62;48.42
10366;BME280;5229;41.820;23.490;2023-02-14T04:00:47;90890.84;;;1.67;48.73
10366;BME280;5229;41.820;23.490;2023-02-14T04:03:17;90873.16;;;1.66;48.25
10366;BME280;5229;41.820;23.490;2023-02-14T04:05:46;90866.19;;;1.61;48.86
10366;BME280;5229;41.820;23.490;2023-02-14T04:08:20;90855.66;;;1.58;49.07
10366;BME280;5229;41.820;23.490;2023-02-14T04:10:48;90854.09;;;1.57;48.67
10366;BME280;5229;41.820;23.490;2023-02-14T04:13:15;90854.09;;;1.57;49.22
10366;BME280;5229;41.820;23.490;2023-02-14T04:15:42;90868.09;;;1.54;49.07
10366;BME280;5229;41.820;23.490;2023-02-14T04:18:09;90865.56;;;1.54;49.06
10366;BME280;5229;41.820;23.490;2023-02-14T04:20:54;90877.00;;;1.52;49.35
10366;BME280;5229;41.820;23.490;2023-02-14T04:23:20;90866.78;;;1.52;49.19
10366;BME280;5229;41.820;23.490;2023-02-14T04:25:48;90867.56;;;1.52;49.04
10366;BME280;5229;41.820;23.490;2023-02-14T04:28:15;90887.44;;;1.50;49.06
10366;BME280;5229;41.820;23.490;2023-02-14T04:30:42;90885.69;;;1.51;49.02
10366;BME280;5229;41.820;23.490;2023-02-14T04:33:09;90860.13;;;1.51;49.07
10366;BME280;5229;41.820;23.490;2023-02-14T04:35:36;90853.44;;;1.50;49.23
10366;BME280;5229;41.820;23.490;2023-02-14T04:38:03;90866.47;;;1.48;49.09
10366;BME280;5229;41.820;23.490;2023-02-14T04:40:30;90852.69;;;1.49;49.29
10366;BME280;5229;41.820;23.490;2023-02-14T04:42:58;90843.69;;;1.47;48.93
10366;BME280;5229;41.820;23.490;2023-02-14T04:45:26;90846.72;;;1.44;48.98
10366;BME280;5229;41.820;23.490;2023-02-14T04:47:52;90850.50;;;1.41;49.06
10366;BME280;5229;41.820;23.490;2023-02-14T04:50:19;90848.09;;;1.35;49.08
10366;BME280;5229;41.820;23.490;2023-02-14T04:52:47;90858.00;;;1.31;49.04
10366;BME280;5229;41.820;23.490;2023-02-14T04:55:14;90864.09;;;1.30;49.22
10366;BME280;5229;41.820;23.490;2023-02-14T04:57:41;90865.31;;;1.28;49.02
10366;BME280;5229;41.820;23.490;2023-02-14T05:00:10;90864.53;;;1.27;49.11
10366;BME280;5229;41.820;23.490;2023-02-14T05:02:37;90855.31;;;1.26;49.00
10366;BME280;5229;41.820;23.490;2023-02-14T05:05:05;90871.44;;;1.27;48.92
10366;BME280;5229;41.820;23.490;2023-02-14T05:07:32;90861.22;;;1.27;48.83
10366;BME280;5229;41.820;23.490;2023-02-14T05:09:58;90856.63;;;1.29;49.06
10366;BME280;5229;41.820;23.490;2023-02-14T05:12:25;90850.00;;;1.28;48.93
10366;BME280;5229;41.820;23.490;2023-02-14T05:14:52;90846.34;;;1.24;48.49
10366;BME280;5229;41.820;23.490;2023-02-14T05:17:22;90847.25;;;1.18;49.08
10366;BME280;5229;41.820;23.490;2023-02-14T05:19:48;90856.28;;;1.09;48.68
10366;BME280;5229;41.820;23.490;2023-02-14T05:22:15;90853.84;;;1.02;48.82
10366;BME280;5229;41.820;23.490;2023-02-14T05:24:42;90842.31;;;1.00;48.86
10366;BME280;5229;41.820;23.490;2023-02-14T05:27:09;90843.31;;;0.99;48.58
10366;BME280;5229;41.820;23.490;2023-02-14T05:29:36;90834.13;;;0.98;48.90
10366;BME280;5229;41.820;23.490;2023-02-14T05:32:03;90823.13;;;0.97;48.75
10366;BME280;5229;41.820;23.490;2023-02-14T05:34:31;90823.91;;;0.98;48.93
10366;BME280;5229;41.820;23.490;2023-02-14T05:36:58;90807.34;;;1.00;49.05
10366;BME280;5229;41.820;23.490;2023-02-14T05:39:26;90809.69;;;1.02;48.64
10366;BME280;5229;41.820;23.490;2023-02-14T05:41:53;90819.91;;;1.02;48.76
10366;BME280;5229;41.820;23.490;2023-02-14T05:44:20;90825.75;;;1.02;48.54
10366;BME280;5229;41.820;23.490;2023-02-14T05:46:47;90832.97;;;1.05;48.48
10366;BME280;5229;41.820;23.490;2023-02-14T05:49:14;90843.41;;;1.04;48.26
10366;BME280;5229;41.820;23.490;2023-02-14T05:51:42;90839.53;;;1.01;48.36
10366;BME280;5229;41.820;23.490;2023-02-14T05:54:09;90851.28;;;1.02;48.49
10366;BME280;5229;41.820;23.490;2023-02-14T05:56:36;90853.16;;;1.07;48.70
10366;BME280;5229;41.820;23.490;2023-02-14T05:59:03;90850.16;;;1.10;48.66
10366;BME280;5229;41.820;23.490;2023-02-14T06:01:29;90848.25;;;1.17;48.89
10366;BME280;5229;41.820;23.490;2023-02-14T06:03:56;90845.78;;;1.22;48.88
10366;BME280;5229;41.820;23.490;2023-02-14T06:06:23;90848.00;;;1.30;48.90
10366;BME280;5229;41.820;23.490;2023-02-14T06:08:51;90841.50;;;1.39;48.65
10366;BME280;5229;41.820;23.490;2023-02-14T06:11:18;90827.91;;;1.50;48.91
10366;BME280;5229;41.820;23.490;2023-02-14T06:13:45;90841.88;;;1.59;48.95
10366;BME280;5229;41.820;23.490;2023-02-14T06:16:12;90835.38;;;1.68;48.73
10366;BME280;5229;41.820;23.490;2023-02-14T06:18:38;90819.22;;;1.79;49.10
10366;BME280;5229;41.820;23.490;2023-02-14T06:21:05;90821.16;;;2.21;48.95
10366;BME280;5229;41.820;23.490;2023-02-14T06:23:32;90827.25;;;3.13;47.81
10366;BME280;5229;41.820;23.490;2023-02-14T06:26:00;90828.56;;;4.22;46.26
10366;BME280;5229;41.820;23.490;2023-02-14T06:28:28;90821.47;;;5.37;44.70
10366;BME280;5229;41.820;23.490;2023-02-14T06:30:56;90816.03;;;6.35;43.33
10366;BME280;5229;41.820;23.490;2023-02-14T06:33:22;90806.94;;;6.88;41.90
10366;BME280;5229;41.820;23.490;2023-02-14T06:35:49;90814.56;;;7.23;41.29
10366;BME280;5229;41.820;23.490;2023-02-14T06:38:18;90810.16;;;7.87;40.72
10366;BME280;5229;41.820;23.490;2023-02-14T06:40:45;90819.00;;;8.58;40.80
10366;BME280;5229;41.820;23.490;2023-02-14T06:43:13;90822.59;;;9.19;39.71
10366;BME280;5229;41.820;23.490;2023-02-14T06:45:40;90820.91;;;9.94;38.80
10366;BME280;5229;41.820;23.490;2023-02-14T06:48:08;90810.59;;;10.81;37.81
10366;BME280;5229;41.820;23.490;2023-02-14T06:50:35;90808.09;;;11.89;35.62
10366;BME280;5229;41.820;23.490;2023-02-14T06:53:02;90806.97;;;12.97;35.08
10366;BME280;5229;41.820;23.490;2023-02-14T06:55:28;90805.88;;;13.90;33.40
10366;BME280;5229;41.820;23.490;2023-02-14T06:57:55;90808.47;;;14.72;32.59
10366;BME280;5229;41.820;23.490;2023-02-14T07:00:23;90823.25;;;15.56;31.16
10366;BME280;5229;41.820;23.490;2023-02-14T07:02:51;90827.66;;;16.10;30.53
10366;BME280;5229;41.820;23.490;2023-02-14T07:05:18;90832.78;;;16.56;30.18
10366;BME280;5229;41.820;23.490;2023-02-14T07:07:45;90831.56;;;17.15;28.89
10366;BME280;5229;41.820;23.490;2023-02-14T07:10:12;90832.63;;;17.68;28.83
10366;BME280;5229;41.820;23.490;2023-02-14T07:12:39;90823.94;;;18.24;28.04
10366;BME280;5229;41.820;23.490;2023-02-14T07:15:07;90819.97;;;18.66;27.22
10366;BME280;5229;41.820;23.490;2023-02-14T07:17:36;90813.69;;;18.94;26.90
10366;BME280;5229;41.820;23.490;2023-02-14T07:20:07;90808.03;;;19.08;26.53
10366;BME280;5229;41.820;23.490;2023-02-14T07:22:35;90806.03;;;18.89;26.59
10366;BME280;5229;41.820;23.490;2023-02-14T07:25:02;90799.44;;;18.56;26.83
10366;BME280;5229;41.820;23.490;2023-02-14T07:27:30;90798.16;;;18.38;26.77
10366;BME280;5229;41.820;23.490;2023-02-14T07:29:57;90806.25;;;18.45;26.87
10366;BME280;5229;41.820;23.490;2023-02-14T07:32:24;90803.50;;;18.41;26.57
10366;BME280;5229;41.820;23.490;2023-02-14T07:34:52;90809.16;;;18.31;26.76
10366;BME280;5229;41.820;23.490;2023-02-14T07:37:19;90812.13;;;18.18;26.50
10366;BME280;5229;41.820;23.490;2023-02-14T07:39:46;90806.41;;;17.80;26.77
10366;BME280;5229;41.820;23.490;2023-02-14T07:42:13;90801.78;;;17.52;27.30
10366;BME280;5229;41.820;23.490;2023-02-14T07:44:39;90805.94;;;17.33;27.01
10366;BME280;5229;41.820;23.490;2023-02-14T07:47:08;90799.94;;;17.00;27.36
10366;BME280;5229;41.820;23.490;2023-02-14T07:49:35;90800.34;;;16.69;27.78
10366;BME280;5229;41.820;23.490;2023-02-14T07:52:04;90800.22;;;16.66;27.19
10366;BME280;5229;41.820;23.490;2023-02-14T07:54:30;90793.56;;;16.48;27.63
10366;BME280;5229;41.820;23.490;2023-02-14T07:56:57;90788.97;;;16.16;27.75
10366;BME280;5229;41.820;23.490;2023-02-14T07:59:24;90790.19;;;15.60;28.39
10366;BME280;5229;41.820;23.490;2023-02-14T08:01:51;90789.56;;;14.92;28.95
10366;BME280;5229;41.820;23.490;2023-02-14T08:04:18;90780.22;;;14.48;29.57
10366;BME280;5229;41.820;23.490;2023-02-14T08:06:45;90784.50;;;14.27;29.47
10366;BME280;5229;41.820;23.490;2023-02-14T08:09:13;90773.41;;;14.21;29.62
10366;BME280;5229;41.820;23.490;2023-02-14T08:11:49;90769.00;;;14.22;29.51
10366;BME280;5229;41.820;23.490;2023-02-14T08:14:33;90766.69;;;14.29;29.60
10366;BME280;5229;41.820;23.490;2023-02-14T08:17:00;90765.47;;;14.69;29.16
10366;BME280;5229;41.820;23.490;2023-02-14T08:19:27;90773.91;;;14.66;29.04
10366;BME280;5229;41.820;23.490;2023-02-14T08:21:54;90765.63;;;14.81;29.05
10366;BME280;5229;41.820;23.490;2023-02-14T08:24:23;90769.53;;;15.21;28.42
10366;BME280;5229;41.820;23.490;2023-02-14T08:26:50;90772.97;;;15.59;28.12
10366;BME280;5229;41.820;23.490;2023-02-14T08:29:17;90770.59;;;15.29;28.31
10366;BME280;5229;41.820;23.490;2023-02-14T08:31:44;90770.84;;;14.81;28.67
10366;BME280;5229;41.820;23.490;2023-02-14T08:34:12;90766.53;;;14.34;29.44
10366;BME280;5229;41.820;23.490;2023-02-14T08:36:38;90767.84;;;13.89;29.87
10366;BME280;5229;41.820;23.490;2023-02-14T08:39:06;90768.69;;;13.59;30.36
10366;BME280;5229;41.820;23.490;2023-02-14T08:41:35;90768.22;;;13.57;30.17
10366;BME280;5229;41.820;23.490;2023-02-14T08:44:02;90768.47;;;13.94;29.92
10366;BME280;5229;41.820;23.490;2023-02-14T08:46:28;90776.16;;;13.99;30.02
10366;BME280;5229;41.820;23.490;2023-02-14T08:48:55;90765.41;;;13.92;30.22
10366;BME280;5229;41.820;23.490;2023-02-14T08:51:22;90764.94;;;13.99;30.06
10366;BME280;5229;41.820;23.490;2023-02-14T08:53:50;90765.78;;;14.33;29.52
10366;BME280;5229;41.820;23.490;2023-02-14T08:56:18;90775.31;;;14.38;29.54
10366;BME280;5229;41.820;23.490;2023-02-14T08:58:50;90787.72;;;14.41;29.94
10366;BME280;5229;41.820;23.490;2023-02-14T09:01:17;90783.41;;;14.79;29.56
10366;BME280;5229;41.820;23.490;2023-02-14T09:03:44;90771.25;;;15.00;29.02
10366;BME280;5229;41.820;23.490;2023-02-14T09:06:13;90786.41;;;15.32;28.37
10366;BME280;5229;41.820;23.490;2023-02-14T09:08:42;90791.31;;;15.42;28.46
10366;BME280;5229;41.820;23.490;2023-02-14T09:11:11;90795.78;;;15.79;28.34
10366;BME280;5229;41.820;23.490;2023-02-14T09:13:38;90784.59;;;16.57;27.30
10366;BME280;5229;41.820;23.490;2023-02-14T09:16:08;90781.13;;;17.51;26.63
10366;BME280;5229;41.820;23.490;2023-02-14T09:18:35;90785.66;;;18.47;25.63
10366;BME280;5229;41.820;23.490;2023-02-14T09:21:06;90786.41;;;19.26;25.11
10366;BME280;5229;41.820;23.490;2023-02-14T09:23:33;90798.09;;;19.72;24.49
10366;BME280;5229;41.820;23.490;2023-02-14T09:26:00;90800.78;;;20.34;23.90
10366;BME280;5229;41.820;23.490;2023-02-14T09:28:28;90808.63;;;21.00;23.23
10366;BME280;5229;41.820;23.490;2023-02-14T09:30:55;90802.94;;;21.74;22.85
10366;BME280;5229;41.820;23.490;2023-02-14T09:33:26;90798.44;;;21.97;21.99
10366;BME280;5229;41.820;23.490;2023-02-14T09:35:53;90796.84;;;21.92;22.20
10366;BME280;5229;41.820;23.490;2023-02-14T09:38:37;90785.06;;;22.09;22.03
10366;BME280;5229;41.820;23.490;2023-02-14T09:41:05;90786.53;;;22.06;21.63
10366;BME280;5229;41.820;23.490;2023-02-14T09:43:36;90785.34;;;21.81;21.83
10366;BME280;5229;41.820;23.490;2023-02-14T09:46:07;90791.31;;;21.78;21.76
10366;BME280;5229;41.820;23.490;2023-02-14T09:48:39;90776.31;;;21.82;21.87
10366;BME280;5229;41.820;23.490;2023-02-14T09:51:12;90776.94;;;21.98;21.54
10366;BME280;5229;41.820;23.490;2023-02-14T09:53:43;90778.06;;;22.20;21.14
10366;BME280;5229;41.820;23.490;2023-02-14T09:56:15;90773.00;;;22.11;21.39
10366;BME280;5229;41.820;23.490;2023-02-14T09:58:49;90771.75;;;22.28;21.30
10366;BME280;5229;41.820;23.490;2023-02-14T10:01:21;90761.25;;;22.31;21.04
10366;BME280;5229;41.820;23.490;2023-02-14T10:04:12;90756.59;;;22.73;20.72
10366;BME280;5229;41.820;23.490;2023-02-14T10:06:48;90756.72;;;23.14;20.44
10366;BME280;5229;41.820;23.490;2023-02-14T10:09:40;90748.88;;;22.91;20.60
10366;BME280;5229;41.820;23.490;2023-02-14T10:12:15;90744.66;;;22.86;20.95
10366;BME280;5229;41.820;23.490;2023-02-14T10:14:45;90746.28;;;22.95;20.46
10366;BME280;5229;41.820;23.490;2023-02-14T10:17:17;90739.09;;;22.95;20.48
10366;BME280;5229;41.820;23.490;2023-02-14T10:19:50;90754.66;;;22.70;20.55
10366;BME280;5229;41.820;23.490;2023-02-14T10:22:20;90739.41;;;22.34;21.05
10366;BME280;5229;41.820;23.490;2023-02-14T10:24:53;90738.50;;;22.01;21.26
10366;BME280;5229;41.820;23.490;2023-02-14T10:27:29;90737.81;;;21.81;21.28
10366;BME280;5229;41.820;23.490;2023-02-14T10:29:58;90739.22;;;21.75;21.70
10366;BME280;5229;41.820;23.490;2023-02-14T10:32:30;90739.25;;;22.01;21.34
10366;BME280;5229;41.820;23.490;2023-02-14T10:35:10;90735.78;;;21.97;21.56
10366;BME280;5229;41.820;23.490;2023-02-14T10:37:53;90734.47;;;21.65;21.52
10366;BME280;5229;41.820;23.490;2023-02-14T10:40:34;90727.50;;;21.54;21.71
10366;BME280;5229;41.820;23.490;2023-02-14T10:43:15;90714.88;;;21.66;21.44
10366;BME280;5229;41.820;23.490;2023-02-14T10:45:52;90724.38;;;21.90;21.61
10366;BME280;5229;41.820;23.490;2023-02-14T10:48:28;90716.44;;;21.90;21.29
10366;BME280;5229;41.820;23.490;2023-02-14T10:51:03;90712.84;;;21.79;21.64
10366;BME280;5229;41.820;23.490;2023-02-14T10:53:39;90707.78;;;21.93;21.37
10366;BME280;5229;41.820;23.490;2023-02-14T10:56:16;90692.94;;;22.07;21.09
10366;BME280;5229;41.820;23.490;2023-02-14T10:58:45;90683.03;;;21.56;21.50
10366;BME280;5229;41.820;23.490;2023-02-14T11:01:16;90682.50;;;20.29;22.66
10366;BME280;5229;41.820;23.490;2023-02-14T11:03:51;90682.38;;;18.86;23.68
10366;BME280;5229;41.820;23.490;2023-02-14T11:06:20;90681.16;;;17.65;25.30
10366;BME280;5229;41.820;23.490;2023-02-14T11:08:46;90677.41;;;16.32;26.01
10366;BME280;5229;41.820;23.490;2023-02-14T11:11:17;90687.47;;;15.14;27.32
10366;BME280;5229;41.820;23.490;2023-02-14T11:13:46;90678.13;;;14.07;28.92
10366;BME280;5229;41.820;23.490;2023-02-14T11:16:26;90680.41;;;13.10;30.21
10366;BME280;5229;41.820;23.490;2023-02-14T11:19:08;90677.03;;;12.26;31.35
10366;BME280;5229;41.820;23.490;2023-02-14T11:21:38;90671.50;;;11.61;31.62
10366;BME280;5229;41.820;23.490;2023-02-14T11:24:16;90680.78;;;11.13;32.66
10366;BME280;5229;41.820;23.490;2023-02-14T11:26:45;90666.38;;;10.80;32.81
10366;BME280;5229;41.820;23.490;2023-02-14T11:29:15;90673.81;;;10.41;33.92
10366;BME280;5229;41.820;23.490;2023-02-14T11:31:47;90666.84;;;10.10;34.24
10366;BME280;5229;41.820;23.490;2023-02-14T11:34:30;90666.50;;;9.79;34.76
10366;BME280;5229;41.820;23.490;2023-02-14T11:36:59;90657.69;;;9.62;35.11
10366;BME280;5229;41.820;23.490;2023-02-14T11:39:29;90654.16;;;9.39;36.11
10366;BME280;5229;41.820;23.490;2023-02-14T11:41:58;90650.28;;;9.18;35.97
10366;BME280;5229;41.820;23.490;2023-02-14T11:44:27;90654.63;;;9.04;36.32
10366;BME280;5229;41.820;23.490;2023-02-14T11:46:56;90651.63;;;8.92;36.55
10366;BME280;5229;41.820;23.490;2023-02-14T11:49:28;90647.56;;;8.86;36.90
10366;BME280;5229;41.820;23.490;2023-02-14T11:51:59;90635.25;;;8.78;37.21
10366;BME280;5229;41.820;23.490;2023-02-14T11:54:31;90621.03;;;8.57;37.57
10366;BME280;5229;41.820;23.490;2023-02-14T11:57:04;90626.44;;;8.37;38.63
10366;BME280;5229;41.820;23.490;2023-02-14T11:59:36;90622.97;;;8.23;38.78
10366;BME280;5229;41.820;23.490;2023-02-14T12:02:13;90619.22;;;8.05;39.50
10366;BME280;5229;41.820;23.490;2023-02-14T12:04:44;90615.50;;;7.88;39.25
10366;BME280;5229;41.820;23.490;2023-02-14T12:07:20;90612.03;;;7.74;39.35
10366;BME280;5229;41.820;23.490;2023-02-14T12:10:07;90612.16;;;7.59;40.33
10366;BME280;5229;41.820;23.490;2023-02-14T12:12:34;90624.81;;;7.55;39.60
10366;BME280;5229;41.820;23.490;2023-02-14T12:15:23;90618.19;;;7.44;39.94
10366;BME280;5229;41.820;23.490;2023-02-14T12:17:55;90621.81;;;7.43;40.48
10366;BME280;5229;41.820;23.490;2023-02-14T12:20:34;90619.50;;;7.37;40.11
10366;BME280;5229;41.820;23.490;2023-02-14T12:23:11;90608.19;;;7.33;40.91
10366;BME280;5229;41.820;23.490;2023-02-14T12:25:42;90604.09;;;7.32;41.35
10366;BME280;5229;41.820;23.490;2023-02-14T12:28:13;90602.56;;;7.26;40.67
10366;BME280;5229;41.820;23.490;2023-02-14T12:30:41;90593.31;;;7.20;41.37
10366;BME280;5229;41.820;23.490;2023-02-14T12:33:15;90592.84;;;7.13;40.97
10366;BME280;5229;41.820;23.490;2023-02-14T12:35:48;90585.69;;;7.10;41.21
10366;BME280;5229;41.820;23.490;2023-02-14T12:38:27;90579.53;;;7.01;41.97
10366;BME280;5229;41.820;23.490;2023-02-14T12:41:01;90573.69;;;6.90;41.69
10366;BME280;5229;41.820;23.490;2023-02-14T12:43:44;90562.91;;;6.83;41.70
10366;BME280;5229;41.820;23.490;2023-02-14T12:46:20;90573.22;;;6.78;42.54
10366;BME280;5229;41.820;23.490;2023-02-14T12:49:00;90566.81;;;6.76;41.69
10366;BME280;5229;41.820;23.490;2023-02-14T12:51:34;90559.59;;;6.73;42.23
10366;BME280;5229;41.820;23.490;2023-02-14T12:54:21;90574.09;;;6.64;42.92
10366;BME280;5229;41.820;23.490;2023-02-14T12:56:59;90589.59;;;6.54;43.45
10366;BME280;5229;41.820;23.490;2023-02-14T12:59:34;90588.84;;;6.43;42.85
10366;BME280;5229;41.820;23.490;2023-02-14T13:05:15;90583.03;;;6.18;43.78
10366;BME280;5229;41.820;23.490;2023-02-14T13:08:04;90573.53;;;6.13;43.94
10366;BME280;5229;41.820;23.490;2023-02-14T13:10:42;90577.91;;;6.13;43.55
10366;BME280;5229;41.820;23.490;2023-02-14T13:13:19;90565.31;;;6.06;44.32
10366;BME280;5229;41.820;23.490;2023-02-14T13:15:55;90570.72;;;5.99;43.93
10366;BME280;5229;41.820;23.490;2023-02-14T13:18:34;90567.13;;;5.95;43.91
10366;BME280;5229;41.820;23.490;2023-02-14T13:21:05;90568.69;;;5.96;43.84
10366;BME280;5229;41.820;23.490;2023-02-14T13:23:37;90570.22;;;5.97;44.16
10366;BME280;5229;41.820;23.490;2023-02-14T13:26:09;90558.41;;;5.96;43.96
10366;BME280;5229;41.820;23.490;2023-02-14T13:28:39;90559.94;;;5.97;43.88
10366;BME280;5229;41.820;23.490;2023-02-14T13:31:10;90555.34;;;5.89;44.52
10366;BME280;5229;41.820;23.490;2023-02-14T13:33:41;90536.53;;;5.79;44.49
10366;BME280;5229;41.820;23.490;2023-02-14T13:36:11;90537.84;;;5.81;44.83
10366;BME280;5229;41.820;23.490;2023-02-14T13:38:42;90538.34;;;5.78;44.50
10366;BME280;5229;41.820;23.490;2023-02-14T13:41:13;90528.81;;;5.79;44.76
10366;BME280;5229;41.820;23.490;2023-02-14T13:43:45;90528.06;;;5.78;44.35
10366;BME280;5229;41.820;23.490;2023-02-14T13:46:12;90541.44;;;5.75;44.28
10366;BME280;5229;41.820;23.490;2023-02-14T13:48:41;90559.94;;;5.77;44.17